createdAt,value
2023-09-20T00:01:53.555Z,23.60
2023-09-20T00:04:23.541Z,23.60
2023-09-20T00:06:50.495Z,23.70
2023-09-20T00:09:18.723Z,23.60
2023-09-20T00:11:46.621Z,23.60
2023-09-20T00:14:13.897Z,23.60
2023-09-20T00:16:41.756Z,23.60
2023-09-20T00:19:09.405Z,23.60
2023-09-20T00:21:36.262Z,23.60
2023-09-20T00:24:06.090Z,23.60
2023-09-20T00:26:36.141Z,23.60
2023-09-20T00:29:07.027Z,23.60
2023-09-20T00:31:34.684Z,23.60
2023-09-20T00:34:04.569Z,23.60
2023-09-20T00:36:33.139Z,23.60
2023-09-20T00:39:01.964Z,23.60
2023-09-20T00:41:29.339Z,23.60
2023-09-20T00:43:56.453Z,23.60
2023-09-20T00:46:24.754Z,23.60
2023-09-20T00:48:52.647Z,23.60
2023-09-20T00:51:23.597Z,23.60
2023-09-20T00:53:58.431Z,23.50
2023-09-20T00:56:25.878Z,23.60
2023-09-20T00:58:54.740Z,23.60
2023-09-20T01:01:22.826Z,23.50
2023-09-20T01:03:49.964Z,23.60
2023-09-20T01:06:19.087Z,23.50
2023-09-20T01:08:48.320Z,23.60
2023-09-20T01:11:16.733Z,23.50
2023-09-20T01:13:45.197Z,23.60
2023-09-20T01:16:15.432Z,23.50
2023-09-20T01:18:45.773Z,23.50
2023-09-20T01:21:12.961Z,23.50
2023-09-20T01:23:41.782Z,23.50
2023-09-20T01:26:09.170Z,23.50
2023-09-20T01:28:37.029Z,23.50
2023-09-20T01:31:06.322Z,23.50
2023-09-20T01:33:35.006Z,23.50
2023-09-20T01:36:06.330Z,23.50
2023-09-20T01:38:35.519Z,23.40
2023-09-20T01:41:04.298Z,23.50
2023-09-20T01:43:31.579Z,23.40
2023-09-20T01:45:58.418Z,23.40
2023-09-20T01:48:25.705Z,23.40
2023-09-20T01:50:52.892Z,23.40
2023-09-20T01:53:20.297Z,23.40
2023-09-20T01:55:47.992Z,23.40
2023-09-20T01:58:16.194Z,23.40
2023-09-20T02:00:43.929Z,23.40
2023-09-20T02:03:15.838Z,23.40
2023-09-20T02:05:44.853Z,23.40
2023-09-20T02:08:11.729Z,23.40
2023-09-20T02:10:39.494Z,23.40
2023-09-20T02:13:07.486Z,23.40
2023-09-20T02:15:41.988Z,23.40
2023-09-20T02:18:10.448Z,23.40
2023-09-20T02:20:39.582Z,23.40
2023-09-20T02:23:09.091Z,23.40
2023-09-20T02:25:36.431Z,23.40
2023-09-20T02:28:08.721Z,23.40
2023-09-20T02:30:38.792Z,23.40
2023-09-20T02:33:07.599Z,23.40
2023-09-20T02:35:38.084Z,23.30
2023-09-20T02:38:07.980Z,23.40
2023-09-20T02:40:36.916Z,23.30
2023-09-20T02:43:09.262Z,23.40
2023-09-20T02:45:41.280Z,23.30
2023-09-20T02:48:09.266Z,23.30
2023-09-20T02:50:37.194Z,23.40
2023-09-20T02:53:07.890Z,23.30
2023-09-20T02:55:35.790Z,23.40
2023-09-20T02:58:02.862Z,23.40
2023-09-20T03:00:32.999Z,23.30
2023-09-20T03:03:03.162Z,23.30
2023-09-20T03:05:36.051Z,23.30
2023-09-20T03:08:13.092Z,23.30
2023-09-20T03:10:44.970Z,23.30
2023-09-20T03:13:17.602Z,23.30
2023-09-20T03:15:46.607Z,23.30
2023-09-20T03:18:16.198Z,23.30
2023-09-20T03:20:50.483Z,23.30
2023-09-20T03:23:18.451Z,23.30
2023-09-20T03:25:45.982Z,23.30
2023-09-20T03:28:20.249Z,23.30
2023-09-20T03:30:48.377Z,23.40
2023-09-20T03:33:18.520Z,23.30
2023-09-20T03:35:45.874Z,23.30
2023-09-20T03:38:13.440Z,23.30
2023-09-20T03:40:42.432Z,23.30
2023-09-20T03:43:09.766Z,23.30
2023-09-20T03:45:42.888Z,23.30
2023-09-20T03:48:10.052Z,23.30
2023-09-20T03:50:40.120Z,23.30
2023-09-20T03:53:07.093Z,23.30
2023-09-20T03:55:34.636Z,23.30
2023-09-20T03:58:02.292Z,23.30
2023-09-20T04:00:30.116Z,23.30
2023-09-20T04:03:00.146Z,23.30
2023-09-20T04:05:43.990Z,23.20
2023-09-20T04:08:13.907Z,23.20
2023-09-20T04:10:42.308Z,23.30
2023-09-20T04:13:10.160Z,23.20
2023-09-20T04:15:39.587Z,23.20
2023-09-20T04:18:09.376Z,23.20
2023-09-20T04:20:36.900Z,23.20
2023-09-20T04:23:04.782Z,23.20
2023-09-20T04:25:32.209Z,23.20
2023-09-20T04:28:00.347Z,23.10
2023-09-20T04:30:27.563Z,23.10
2023-09-20T04:32:56.477Z,23.10
2023-09-20T04:35:33.304Z,23.10
2023-09-20T04:38:01.887Z,23.10
2023-09-20T04:40:29.920Z,23.10
2023-09-20T04:42:57.162Z,23.10
2023-09-20T04:45:24.811Z,23.00
2023-09-20T04:47:51.880Z,23.10
2023-09-20T04:50:19.136Z,23.10
2023-09-20T04:52:48.146Z,23.10
2023-09-20T04:55:16.346Z,23.10
2023-09-20T04:57:44.857Z,23.10
2023-09-20T05:00:12.292Z,23.10
2023-09-20T05:02:39.428Z,23.10
2023-09-20T05:05:06.742Z,23.10
2023-09-20T05:07:35.371Z,23.10
2023-09-20T05:10:03.392Z,23.10
2023-09-20T05:12:31.427Z,23.00
2023-09-20T05:14:59.105Z,23.00
2023-09-20T05:17:26.791Z,23.00
2023-09-20T05:19:53.736Z,23.00
2023-09-20T05:22:20.607Z,23.00
2023-09-20T05:24:47.791Z,23.00
2023-09-20T05:27:15.764Z,23.00
2023-09-20T05:29:42.846Z,23.00
2023-09-20T05:32:10.023Z,23.00
2023-09-20T05:34:37.249Z,22.90
2023-09-20T05:37:04.397Z,22.90
2023-09-20T05:39:32.085Z,22.90
2023-09-20T05:42:00.466Z,22.90
2023-09-20T05:44:27.852Z,22.90
2023-09-20T05:46:55.178Z,22.90
2023-09-20T05:49:24.057Z,22.90
2023-09-20T05:51:53.873Z,22.90
2023-09-20T05:54:21.140Z,22.90
2023-09-20T05:56:48.212Z,22.90
2023-09-20T05:59:18.641Z,22.90
2023-09-20T06:01:46.209Z,22.90
2023-09-20T06:04:13.184Z,22.90
2023-09-20T06:06:40.248Z,22.90
2023-09-20T06:09:07.202Z,22.90
2023-09-20T06:11:34.144Z,22.90
2023-09-20T06:14:01.182Z,22.90
2023-09-20T06:16:28.055Z,22.90
2023-09-20T06:19:06.073Z,22.90
2023-09-20T06:21:35.754Z,22.90
2023-09-20T06:24:03.805Z,22.90
2023-09-20T06:26:30.966Z,22.90
2023-09-20T06:28:58.092Z,22.90
2023-09-20T06:31:25.114Z,22.90
2023-09-20T06:33:52.483Z,22.90
2023-09-20T06:36:23.286Z,22.90
2023-09-20T06:38:51.305Z,22.90
2023-09-20T06:41:19.309Z,22.90
2023-09-20T06:43:46.465Z,23.00
2023-09-20T06:46:13.486Z,23.00
2023-09-20T06:48:40.487Z,23.00
2023-09-20T06:51:07.539Z,23.00
2023-09-20T06:53:34.479Z,23.00
2023-09-20T06:56:01.724Z,23.00
2023-09-20T06:58:29.730Z,23.00
2023-09-20T07:00:57.362Z,23.10
2023-09-20T07:03:24.838Z,23.10
2023-09-20T07:05:53.463Z,23.10
2023-09-20T07:08:22.662Z,23.10
2023-09-20T07:10:52.159Z,23.10
2023-09-20T07:13:20.686Z,23.20
2023-09-20T07:15:48.142Z,23.10
2023-09-20T07:18:15.678Z,23.20
2023-09-20T07:20:44.983Z,23.20
2023-09-20T07:23:14.843Z,23.20
2023-09-20T07:25:42.489Z,23.20
2023-09-20T07:28:10.812Z,23.20
2023-09-20T07:30:46.419Z,23.30
2023-09-20T07:33:25.444Z,23.30
2023-09-20T07:36:00.504Z,23.30
2023-09-20T07:38:30.327Z,23.30
2023-09-20T07:41:07.106Z,23.30
2023-09-20T07:43:34.655Z,23.30
2023-09-20T07:46:04.529Z,23.40
2023-09-20T07:48:34.332Z,23.40
2023-09-20T07:51:05.472Z,23.40
2023-09-20T07:53:32.913Z,23.40
2023-09-20T07:56:12.443Z,23.40
2023-09-20T07:58:42.336Z,23.50
2023-09-20T08:01:20.441Z,23.50
2023-09-20T08:03:56.216Z,23.50
2023-09-20T08:06:26.722Z,23.50
2023-09-20T08:08:53.782Z,23.60
2023-09-20T08:11:22.330Z,23.60
2023-09-20T08:14:07.790Z,23.60
2023-09-20T08:16:52.756Z,23.70
2023-09-20T08:19:22.139Z,23.70
2023-09-20T08:21:49.704Z,23.80
2023-09-20T08:24:35.109Z,23.80
2023-09-20T08:27:21.046Z,23.80
2023-09-20T08:30:07.106Z,23.90
2023-09-20T08:32:52.748Z,23.90
2023-09-20T08:35:38.371Z,23.90
2023-09-20T08:38:24.006Z,24.00
2023-09-20T08:41:09.681Z,24.00
2023-09-20T08:43:55.960Z,24.00
2023-09-20T08:46:44.601Z,24.10
2023-09-20T08:49:30.978Z,24.10
2023-09-20T08:52:33.066Z,24.20
2023-09-20T08:55:19.154Z,24.20
2023-09-20T08:58:04.781Z,24.30
2023-09-20T09:00:33.171Z,24.40
2023-09-20T09:03:04.400Z,24.50
2023-09-20T09:05:40.235Z,24.60
2023-09-20T09:08:50.519Z,24.80
2023-09-20T09:11:17.596Z,24.90
2023-09-20T09:13:44.502Z,25.10
2023-09-20T09:16:14.778Z,25.20
2023-09-20T09:18:42.745Z,25.40
2023-09-20T09:21:09.945Z,25.50
2023-09-20T09:23:37.865Z,25.70
2023-09-20T09:26:04.947Z,25.90
2023-09-20T09:28:32.757Z,26.10
2023-09-20T09:30:59.811Z,26.30
2023-09-20T09:33:28.299Z,26.50
2023-09-20T09:35:55.444Z,26.70
2023-09-20T09:38:23.242Z,26.90
2023-09-20T09:40:58.076Z,27.10
2023-09-20T09:43:27.540Z,27.40
2023-09-20T09:45:56.332Z,27.60
2023-09-20T09:48:29.211Z,27.80
2023-09-20T09:50:59.709Z,27.90
2023-09-20T09:53:27.492Z,28.00
2023-09-20T09:55:56.532Z,28.00
2023-09-20T09:58:23.965Z,28.00
2023-09-20T10:00:53.065Z,28.00
2023-09-20T10:03:35.961Z,28.00
2023-09-20T10:06:15.374Z,28.00
2023-09-20T10:08:44.679Z,28.10
2023-09-20T10:11:12.480Z,28.30
2023-09-20T10:13:41.438Z,28.50
2023-09-20T10:16:12.641Z,28.70
2023-09-20T10:19:00.232Z,28.90
2023-09-20T10:21:31.421Z,29.00
2023-09-20T10:24:00.273Z,29.10
2023-09-20T10:26:28.660Z,29.20
2023-09-20T10:29:19.185Z,29.10
2023-09-20T10:31:49.280Z,29.10
2023-09-20T10:34:21.061Z,29.00
2023-09-20T10:36:55.177Z,29.00
2023-09-20T10:39:24.390Z,29.10
2023-09-20T10:41:53.831Z,29.10
2023-09-20T10:44:32.281Z,29.20
2023-09-20T10:47:00.510Z,29.30
2023-09-20T10:49:43.466Z,29.40
2023-09-20T10:52:10.919Z,29.40
2023-09-20T10:54:40.206Z,29.40
2023-09-20T10:57:10.827Z,29.50
2023-09-20T10:59:45.502Z,29.50
2023-09-20T11:02:17.547Z,29.40
2023-09-20T11:04:47.669Z,29.40
2023-09-20T11:07:15.778Z,29.20
2023-09-20T11:09:44.130Z,29.20
2023-09-20T11:12:12.935Z,29.10
2023-09-20T11:14:44.017Z,29.00
2023-09-20T11:17:16.387Z,28.90
2023-09-20T11:19:44.911Z,28.80
2023-09-20T11:22:15.223Z,28.70
2023-09-20T11:25:38.500Z,28.60
2023-09-20T11:28:09.770Z,28.60
2023-09-20T11:34:51.263Z,28.40
2023-09-20T11:37:22.811Z,28.30
2023-09-20T11:39:51.441Z,28.20
2023-09-20T11:42:35.642Z,28.20
2023-09-20T11:45:33.420Z,28.10
2023-09-20T11:47:57.417Z,28.10
2023-09-20T11:50:28.005Z,28.10
2023-09-20T11:52:55.944Z,28.00
2023-09-20T11:55:23.489Z,28.00
2023-09-20T11:57:51.033Z,28.00
2023-09-20T12:00:19.883Z,28.00
2023-09-20T12:02:48.855Z,28.00
2023-09-20T12:05:19.702Z,28.00
2023-09-20T12:07:58.067Z,28.00
2023-09-20T12:10:26.172Z,28.00
2023-09-20T12:12:53.859Z,28.00
2023-09-20T12:15:24.388Z,28.00
2023-09-20T12:17:53.384Z,27.90
2023-09-20T12:20:20.666Z,27.90
2023-09-20T12:22:47.560Z,28.00
2023-09-20T12:25:17.786Z,28.00
2023-09-20T12:27:45.203Z,27.90
2023-09-20T12:30:14.130Z,28.00
2023-09-20T12:32:44.737Z,28.00
2023-09-20T12:35:12.054Z,28.00
2023-09-20T12:37:39.199Z,28.00
2023-09-20T12:40:09.800Z,27.90
2023-09-20T12:42:38.540Z,28.00
2023-09-20T12:45:09.814Z,28.00
2023-09-20T12:47:41.196Z,28.00
2023-09-20T12:50:09.862Z,28.00
2023-09-20T12:52:36.694Z,27.90
2023-09-20T12:55:03.706Z,27.90
2023-09-20T12:57:30.522Z,27.90
2023-09-20T12:59:58.596Z,27.90
2023-09-20T13:02:28.606Z,27.90
2023-09-20T13:05:00.803Z,27.90
2023-09-20T13:07:28.506Z,27.90
2023-09-20T13:09:58.457Z,27.90
2023-09-20T13:12:25.690Z,27.90
2023-09-20T13:14:53.102Z,27.80
2023-09-20T13:17:21.810Z,27.90
2023-09-20T13:19:49.259Z,27.90
2023-09-20T13:22:16.254Z,27.90
2023-09-20T13:24:44.730Z,27.90
2023-09-20T13:27:11.600Z,27.90
2023-09-20T13:29:39.549Z,27.90
2023-09-20T13:32:09.713Z,27.90
2023-09-20T13:34:36.660Z,27.90
2023-09-20T13:37:03.588Z,27.90
2023-09-20T13:39:30.624Z,27.90
2023-09-20T13:41:57.649Z,27.90
2023-09-20T13:44:24.902Z,27.90
2023-09-20T13:46:51.847Z,27.90
2023-09-20T13:49:19.200Z,27.90
2023-09-20T13:51:46.182Z,27.90
2023-09-20T13:54:14.033Z,27.90
2023-09-20T13:56:41.316Z,27.90
2023-09-20T13:59:09.021Z,27.90
2023-09-20T14:01:39.570Z,27.90
2023-09-20T14:04:08.424Z,27.90
2023-09-20T14:06:35.965Z,27.90
2023-09-20T14:09:03.375Z,27.90
2023-09-20T14:11:32.987Z,27.90
2023-09-20T14:14:02.401Z,27.90
2023-09-20T14:16:29.717Z,27.90
2023-09-20T14:18:56.570Z,27.90
2023-09-20T14:21:23.570Z,27.90
2023-09-20T14:23:50.906Z,27.90
2023-09-20T14:26:18.403Z,27.90
2023-09-20T14:28:45.262Z,27.90
2023-09-20T14:31:16.718Z,27.90
2023-09-20T14:33:44.292Z,27.90
2023-09-20T14:36:12.812Z,27.90
2023-09-20T14:38:40.042Z,27.90
2023-09-20T14:41:07.119Z,27.90
2023-09-20T14:43:35.844Z,27.90
2023-09-20T14:46:07.039Z,27.90
2023-09-20T14:48:34.613Z,27.90
2023-09-20T14:51:03.156Z,27.90
2023-09-20T14:53:30.652Z,27.90
2023-09-20T14:55:58.589Z,28.00
2023-09-20T14:58:25.524Z,27.90
2023-09-20T15:00:52.483Z,27.90
2023-09-20T15:03:19.568Z,28.00
2023-09-20T15:05:46.635Z,28.00
2023-09-20T15:08:14.500Z,27.90
2023-09-20T15:10:44.255Z,28.00
2023-09-20T15:13:11.227Z,28.00
2023-09-20T15:15:38.828Z,28.00
2023-09-20T15:18:06.780Z,27.90
2023-09-20T15:20:34.030Z,27.90
2023-09-20T15:23:01.949Z,27.90
2023-09-20T15:25:31.616Z,27.90
2023-09-20T15:28:00.078Z,27.90
2023-09-20T15:30:27.121Z,27.90
2023-09-20T15:32:54.588Z,27.90
2023-09-20T15:35:21.798Z,27.90
2023-09-20T15:37:49.387Z,28.00
2023-09-20T15:40:18.206Z,28.00
2023-09-20T15:42:49.086Z,28.00
2023-09-20T15:45:19.886Z,28.00
2023-09-20T15:47:48.406Z,28.00
2023-09-20T15:50:16.142Z,28.00
2023-09-20T15:52:43.372Z,28.00
2023-09-20T15:55:12.459Z,28.00
2023-09-20T15:57:39.408Z,28.00
2023-09-20T16:00:14.820Z,28.00
2023-09-20T16:02:43.272Z,28.00
2023-09-20T16:05:11.049Z,28.00
2023-09-20T16:07:42.323Z,28.00
2023-09-20T16:10:17.511Z,28.00
2023-09-20T16:12:48.851Z,28.00
2023-09-20T16:15:17.667Z,27.90
2023-09-20T16:17:45.515Z,27.90
2023-09-20T16:20:15.553Z,28.00
2023-09-20T16:22:45.083Z,27.90
2023-09-20T16:25:13.359Z,28.00
2023-09-20T16:27:40.476Z,27.90
2023-09-20T16:30:08.309Z,27.90
2023-09-20T16:32:35.536Z,27.90
2023-09-20T16:35:02.504Z,27.90
2023-09-20T16:37:31.961Z,27.90
2023-09-20T16:39:58.855Z,27.90
2023-09-20T16:42:25.734Z,27.90
2023-09-20T16:44:52.978Z,27.90
2023-09-20T16:47:20.889Z,27.80
2023-09-20T16:49:49.114Z,27.80
2023-09-20T16:52:16.252Z,27.80
2023-09-20T16:54:43.322Z,27.80
2023-09-20T16:57:10.979Z,27.80
2023-09-20T16:59:38.379Z,27.80
2023-09-20T17:02:05.419Z,27.70
2023-09-20T17:04:34.503Z,27.70
2023-09-20T17:07:01.547Z,27.70
2023-09-20T17:09:30.589Z,27.80
2023-09-20T17:11:58.505Z,27.70
2023-09-20T17:14:27.391Z,27.70
2023-09-20T17:16:54.429Z,27.70
2023-09-20T17:19:22.069Z,27.70
2023-09-20T17:21:48.949Z,27.60
2023-09-20T17:24:18.884Z,27.60
2023-09-20T17:26:46.747Z,27.60
2023-09-20T17:29:13.625Z,27.60
2023-09-20T17:31:41.883Z,27.50
2023-09-20T17:34:08.843Z,27.50
2023-09-20T17:36:37.130Z,27.40
2023-09-20T17:39:06.237Z,27.40
2023-09-20T17:41:34.473Z,27.30
2023-09-20T17:44:01.918Z,27.30
2023-09-20T17:46:30.340Z,27.20
2023-09-20T17:48:57.607Z,27.20
2023-09-20T17:51:26.040Z,27.10
2023-09-20T17:53:53.695Z,27.00
2023-09-20T17:56:21.303Z,27.00
2023-09-20T17:58:51.847Z,26.80
2023-09-20T18:01:20.034Z,26.80
2023-09-20T18:03:49.049Z,26.80
2023-09-20T18:06:18.870Z,26.70
2023-09-20T18:08:49.912Z,26.50
2023-09-20T18:11:17.730Z,26.50
2023-09-20T18:13:45.408Z,26.40
2023-09-20T18:16:13.354Z,26.30
2023-09-20T18:18:40.962Z,26.20
2023-09-20T18:21:08.808Z,26.20
2023-09-20T18:23:36.816Z,26.10
2023-09-20T18:26:04.680Z,26.00
2023-09-20T18:28:32.811Z,26.00
2023-09-20T18:31:01.231Z,25.90
2023-09-20T18:33:28.392Z,25.90
2023-09-20T18:35:56.265Z,25.80
2023-09-20T18:38:23.898Z,25.70
2023-09-20T18:40:51.047Z,25.60
2023-09-20T18:43:20.194Z,25.60
2023-09-20T18:45:47.021Z,25.50
2023-09-20T18:48:14.006Z,25.40
2023-09-20T18:50:48.385Z,25.40
2023-09-20T18:53:15.381Z,25.30
2023-09-20T18:55:42.303Z,25.30
2023-09-20T18:58:11.205Z,25.20
2023-09-20T19:00:41.882Z,25.20
2023-09-20T19:03:13.243Z,25.10
2023-09-20T19:05:44.183Z,25.00
2023-09-20T19:08:13.767Z,25.00
2023-09-20T19:10:41.401Z,24.90
2023-09-20T19:13:09.970Z,24.90
2023-09-20T19:15:37.679Z,24.80
2023-09-20T19:18:05.138Z,24.80
2023-09-20T19:20:37.691Z,24.70
2023-09-20T19:23:07.612Z,24.70
2023-09-20T19:25:34.941Z,24.60
2023-09-20T19:28:02.001Z,24.60
2023-09-20T19:30:29.696Z,24.50
2023-09-20T19:32:56.658Z,24.50
2023-09-20T19:35:23.794Z,24.40
2023-09-20T19:37:50.805Z,24.40
2023-09-20T19:40:20.335Z,24.30
2023-09-20T19:42:49.112Z,24.30
2023-09-20T19:45:17.061Z,24.20
2023-09-20T19:47:45.565Z,24.20
2023-09-20T19:50:15.953Z,24.20
2023-09-20T19:52:48.869Z,24.20
2023-09-20T19:55:19.081Z,24.10
2023-09-20T19:57:46.036Z,24.10
2023-09-20T20:00:29.153Z,24.00
2023-09-20T20:02:57.958Z,24.00
2023-09-20T20:05:26.453Z,24.00
2023-09-20T20:07:58.938Z,24.00
2023-09-20T20:10:27.568Z,23.90
2023-09-20T20:12:58.030Z,23.90
2023-09-20T20:15:43.535Z,23.90
2023-09-20T20:18:10.479Z,23.80
2023-09-20T20:20:38.706Z,23.70
2023-09-20T20:23:06.606Z,23.70
2023-09-20T20:25:39.835Z,23.70
2023-09-20T20:28:27.357Z,23.60
2023-09-20T20:30:54.228Z,23.60
2023-09-20T20:33:21.111Z,23.50
2023-09-20T20:35:49.018Z,23.50
2023-09-20T20:38:17.837Z,23.40
2023-09-20T20:40:47.118Z,23.40
2023-09-20T20:43:15.733Z,23.30
2023-09-20T20:45:42.704Z,23.20
2023-09-20T20:48:09.728Z,23.20
2023-09-20T20:50:38.958Z,23.20
2023-09-20T20:53:15.756Z,23.10
2023-09-20T20:55:44.079Z,23.10
2023-09-20T20:58:11.310Z,23.10
2023-09-20T21:00:39.716Z,23.00
2023-09-20T21:03:11.160Z,23.00
2023-09-20T21:05:38.632Z,22.90
2023-09-20T21:08:06.340Z,22.90
2023-09-20T21:10:38.680Z,22.90
2023-09-20T21:13:05.748Z,22.90
2023-09-20T21:15:32.730Z,22.90
2023-09-20T21:18:00.409Z,22.80
2023-09-20T21:20:31.140Z,22.80
2023-09-20T21:23:00.130Z,22.80
2023-09-20T21:25:28.702Z,22.80
2023-09-20T21:27:56.000Z,22.80
2023-09-20T21:30:33.462Z,22.70
2023-09-20T21:33:03.336Z,22.70
2023-09-20T21:35:32.250Z,22.70
2023-09-20T21:38:00.042Z,22.60
2023-09-20T21:40:29.659Z,22.60
2023-09-20T21:42:59.100Z,22.60
2023-09-20T21:45:27.445Z,22.50
2023-09-20T21:47:55.521Z,22.50
2023-09-20T21:50:24.818Z,22.50
2023-09-20T21:52:56.320Z,22.50
2023-09-20T21:55:28.812Z,22.50
2023-09-20T21:57:57.247Z,22.40
2023-09-20T22:00:30.408Z,22.40
2023-09-20T22:03:00.138Z,22.40
2023-09-20T22:05:28.471Z,22.40
2023-09-20T22:08:04.524Z,22.50
2023-09-20T22:10:42.921Z,22.40
2023-09-20T22:13:11.171Z,22.40
2023-09-20T22:15:41.037Z,22.50
2023-09-20T22:18:18.975Z,22.50
2023-09-20T22:20:47.101Z,22.50
2023-09-20T22:23:14.787Z,22.50
2023-09-20T22:25:41.735Z,22.50
2023-09-20T22:28:08.789Z,22.50
2023-09-20T22:30:39.727Z,22.50
2023-09-20T22:33:08.748Z,22.50
2023-09-20T22:35:36.445Z,22.50
2023-09-20T22:38:03.890Z,22.50
2023-09-20T22:40:30.927Z,22.50
2023-09-20T22:42:58.006Z,22.50
2023-09-20T22:45:30.980Z,22.40
2023-09-20T22:47:59.520Z,22.40
2023-09-20T22:50:29.923Z,22.40
2023-09-20T22:53:06.803Z,22.30
2023-09-20T22:55:40.361Z,22.30
2023-09-20T22:58:15.162Z,22.20
2023-09-20T23:00:47.143Z,22.20
2023-09-20T23:03:22.786Z,22.10
2023-09-20T23:05:53.483Z,22.10
2023-09-20T23:08:20.885Z,22.00
2023-09-20T23:10:48.662Z,21.90
2023-09-20T23:13:22.309Z,21.90
2023-09-20T23:15:55.680Z,21.80
2023-09-20T23:18:23.930Z,21.80
2023-09-20T23:20:52.537Z,21.80
2023-09-20T23:23:20.587Z,21.80
2023-09-20T23:25:50.941Z,21.70
2023-09-20T23:28:18.259Z,21.70
2023-09-20T23:30:46.753Z,21.70
2023-09-20T23:33:17.403Z,21.70
2023-09-20T23:35:52.246Z,21.70
2023-09-20T23:38:22.793Z,21.70
2023-09-20T23:40:52.313Z,21.70
2023-09-20T23:43:20.514Z,21.60
2023-09-20T23:45:48.070Z,21.60
2023-09-20T23:48:18.859Z,21.60
2023-09-20T23:50:47.362Z,21.50
2023-09-20T23:53:14.840Z,21.50
2023-09-20T23:55:44.796Z,21.40
2023-09-20T23:58:13.357Z,21.40
